sensor_id;sensor_type;location;lat;lon;timestamp;P1;durP1;ratioP1;P2;durP2;ratioP2
16119;SDS011;12670;53.502;10.252;2023-08-21T00:01:15;10.43;;;2.80;;
16119;SDS011;12670;53.502;10.252;2023-08-21T00:04:18;12.60;;;2.80;;
16119;SDS011;12670;53.502;10.252;2023-08-21T00:07:21;8.73;;;3.07;;
16119;SDS011;12670;53.502;10.252;2023-08-21T00:10:25;9.83;;;2.90;;
16119;SDS011;12670;53.502;10.252;2023-08-21T00:13:28;8.33;;;2.87;;
16119;SDS011;12670;53.502;10.252;2023-08-21T00:16:31;6.90;;;3.17;;
16119;SDS011;12670;53.502;10.252;2023-08-21T00:19:33;6.37;;;2.70;;
16119;SDS011;12670;53.502;10.252;2023-08-21T00:22:36;7.80;;;2.90;;
16119;SDS011;12670;53.502;10.252;2023-08-21T00:25:41;5.93;;;2.80;;
16119;SDS011;12670;53.502;10.252;2023-08-21T00:28:44;9.63;;;2.70;;
16119;SDS011;12670;53.502;10.252;2023-08-21T00:31:47;8.40;;;2.87;;
16119;SDS011;12670;53.502;10.252;2023-08-21T00:34:50;7.57;;;3.23;;
16119;SDS011;12670;53.502;10.252;2023-08-21T00:37:52;10.07;;;2.73;;
16119;SDS011;12670;53.502;10.252;2023-08-21T00:40:56;15.93;;;3.73;;
16119;SDS011;12670;53.502;10.252;2023-08-21T00:43:59;10.43;;;2.90;;
16119;SDS011;12670;53.502;10.252;2023-08-21T00:47:02;8.60;;;2.83;;
16119;SDS011;12670;53.502;10.252;2023-08-21T00:50:05;8.93;;;2.90;;
16119;SDS011;12670;53.502;10.252;2023-08-21T00:53:09;8.50;;;2.73;;
16119;SDS011;12670;53.502;10.252;2023-08-21T00:56:14;8.43;;;2.90;;
16119;SDS011;12670;53.502;10.252;2023-08-21T00:59:17;6.50;;;3.27;;
16119;SDS011;12670;53.502;10.252;2023-08-21T01:02:20;8.97;;;2.80;;
16119;SDS011;12670;53.502;10.252;2023-08-21T01:05:23;6.67;;;3.10;;
16119;SDS011;12670;53.502;10.252;2023-08-21T01:08:28;7.27;;;3.00;;
16119;SDS011;12670;53.502;10.252;2023-08-21T01:11:40;7.27;;;2.90;;
16119;SDS011;12670;53.502;10.252;2023-08-21T01:14:51;8.50;;;3.00;;
16119;SDS011;12670;53.502;10.252;2023-08-21T01:17:59;8.03;;;2.70;;
16119;SDS011;12670;53.502;10.252;2023-08-21T01:21:03;8.50;;;3.27;;
16119;SDS011;12670;53.502;10.252;2023-08-21T01:24:08;10.10;;;2.70;;
16119;SDS011;12670;53.502;10.252;2023-08-21T01:27:11;13.07;;;3.33;;
16119;SDS011;12670;53.502;10.252;2023-08-21T01:30:16;6.40;;;2.90;;
16119;SDS011;12670;53.502;10.252;2023-08-21T01:33:19;5.47;;;2.87;;
16119;SDS011;12670;53.502;10.252;2023-08-21T01:36:22;12.30;;;2.80;;
16119;SDS011;12670;53.502;10.252;2023-08-21T01:39:27;6.67;;;2.80;;
16119;SDS011;12670;53.502;10.252;2023-08-21T01:42:30;10.53;;;2.90;;
16119;SDS011;12670;53.502;10.252;2023-08-21T01:45:33;8.67;;;3.17;;
16119;SDS011;12670;53.502;10.252;2023-08-21T01:48:35;6.10;;;2.90;;
16119;SDS011;12670;53.502;10.252;2023-08-21T01:51:38;8.90;;;2.97;;
16119;SDS011;12670;53.502;10.252;2023-08-21T01:54:42;5.80;;;2.70;;
16119;SDS011;12670;53.502;10.252;2023-08-21T01:57:45;10.77;;;2.80;;
16119;SDS011;12670;53.502;10.252;2023-08-21T02:00:48;7.03;;;2.77;;
16119;SDS011;12670;53.502;10.252;2023-08-21T02:03:51;6.67;;;2.80;;
16119;SDS011;12670;53.502;10.252;2023-08-21T02:06:53;5.33;;;2.83;;
16119;SDS011;12670;53.502;10.252;2023-08-21T02:09:58;9.03;;;2.93;;
16119;SDS011;12670;53.502;10.252;2023-08-21T02:13:00;8.83;;;3.33;;
16119;SDS011;12670;53.502;10.252;2023-08-21T02:16:03;9.07;;;3.13;;
16119;SDS011;12670;53.502;10.252;2023-08-21T02:19:06;8.93;;;3.27;;
16119;SDS011;12670;53.502;10.252;2023-08-21T02:22:08;6.13;;;2.87;;
16119;SDS011;12670;53.502;10.252;2023-08-21T02:25:12;6.90;;;3.20;;
16119;SDS011;12670;53.502;10.252;2023-08-21T02:28:15;10.73;;;2.70;;
16119;SDS011;12670;53.502;10.252;2023-08-21T02:31:18;8.70;;;2.77;;
16119;SDS011;12670;53.502;10.252;2023-08-21T02:34:21;9.77;;;2.90;;
16119;SDS011;12670;53.502;10.252;2023-08-21T02:37:23;10.47;;;3.07;;
16119;SDS011;12670;53.502;10.252;2023-08-21T02:40:27;8.00;;;3.43;;
16119;SDS011;12670;53.502;10.252;2023-08-21T02:43:30;5.03;;;2.80;;
16119;SDS011;12670;53.502;10.252;2023-08-21T02:46:33;9.97;;;2.70;;
16119;SDS011;12670;53.502;10.252;2023-08-21T02:49:37;9.27;;;2.80;;
16119;SDS011;12670;53.502;10.252;2023-08-21T02:52:40;8.23;;;3.03;;
16119;SDS011;12670;53.502;10.252;2023-08-21T02:55:44;13.00;;;3.30;;
16119;SDS011;12670;53.502;10.252;2023-08-21T02:58:46;7.43;;;3.03;;
16119;SDS011;12670;53.502;10.252;2023-08-21T03:01:49;8.27;;;2.93;;
16119;SDS011;12670;53.502;10.252;2023-08-21T03:04:52;9.10;;;3.07;;
16119;SDS011;12670;53.502;10.252;2023-08-21T03:07:55;11.53;;;2.97;;
16119;SDS011;12670;53.502;10.252;2023-08-21T03:10:59;7.20;;;2.93;;
16119;SDS011;12670;53.502;10.252;2023-08-21T03:14:02;8.30;;;3.03;;
16119;SDS011;12670;53.502;10.252;2023-08-21T03:17:04;8.10;;;3.07;;
16119;SDS011;12670;53.502;10.252;2023-08-21T03:20:07;8.77;;;3.17;;
16119;SDS011;12670;53.502;10.252;2023-08-21T03:23:10;11.33;;;3.00;;
16119;SDS011;12670;53.502;10.252;2023-08-21T03:26:14;8.40;;;3.10;;
16119;SDS011;12670;53.502;10.252;2023-08-21T03:29:17;12.40;;;3.00;;
16119;SDS011;12670;53.502;10.252;2023-08-21T03:32:19;7.93;;;3.00;;
16119;SDS011;12670;53.502;10.252;2023-08-21T03:35:22;9.50;;;3.43;;
16119;SDS011;12670;53.502;10.252;2023-08-21T03:38:24;7.63;;;3.00;;
16119;SDS011;12670;53.502;10.252;2023-08-21T03:41:28;6.67;;;3.30;;
16119;SDS011;12670;53.502;10.252;2023-08-21T03:44:31;11.50;;;3.20;;
16119;SDS011;12670;53.502;10.252;2023-08-21T03:47:34;12.53;;;3.30;;
16119;SDS011;12670;53.502;10.252;2023-08-21T03:50:37;8.83;;;3.10;;
16119;SDS011;12670;53.502;10.252;2023-08-21T03:53:40;14.73;;;3.20;;
16119;SDS011;12670;53.502;10.252;2023-08-21T03:56:44;7.73;;;2.90;;
16119;SDS011;12670;53.502;10.252;2023-08-21T03:59:46;13.50;;;3.37;;
16119;SDS011;12670;53.502;10.252;2023-08-21T04:02:49;9.03;;;3.17;;
16119;SDS011;12670;53.502;10.252;2023-08-21T04:05:52;9.37;;;3.50;;
16119;SDS011;12670;53.502;10.252;2023-08-21T04:08:55;8.73;;;3.37;;
16119;SDS011;12670;53.502;10.252;2023-08-21T04:11:59;8.57;;;3.40;;
16119;SDS011;12670;53.502;10.252;2023-08-21T04:15:02;7.60;;;3.53;;
16119;SDS011;12670;53.502;10.252;2023-08-21T04:18:06;9.53;;;3.60;;
16119;SDS011;12670;53.502;10.252;2023-08-21T04:21:09;7.63;;;3.40;;
16119;SDS011;12670;53.502;10.252;2023-08-21T04:24:11;7.97;;;3.33;;
16119;SDS011;12670;53.502;10.252;2023-08-21T04:27:15;6.33;;;3.30;;
16119;SDS011;12670;53.502;10.252;2023-08-21T04:30:18;6.00;;;3.37;;
16119;SDS011;12670;53.502;10.252;2023-08-21T04:33:21;9.80;;;3.57;;
16119;SDS011;12670;53.502;10.252;2023-08-21T04:36:24;10.50;;;3.53;;
16119;SDS011;12670;53.502;10.252;2023-08-21T04:39:26;15.53;;;4.07;;
16119;SDS011;12670;53.502;10.252;2023-08-21T04:42:30;7.90;;;3.63;;
16119;SDS011;12670;53.502;10.252;2023-08-21T04:45:33;8.53;;;4.30;;
16119;SDS011;12670;53.502;10.252;2023-08-21T04:48:35;10.30;;;3.70;;
16119;SDS011;12670;53.502;10.252;2023-08-21T04:51:38;8.83;;;3.57;;
16119;SDS011;12670;53.502;10.252;2023-08-21T04:54:41;9.70;;;4.30;;
16119;SDS011;12670;53.502;10.252;2023-08-21T04:57:48;8.87;;;3.70;;
16119;SDS011;12670;53.502;10.252;2023-08-21T05:00:51;9.73;;;3.50;;
16119;SDS011;12670;53.502;10.252;2023-08-21T05:03:54;9.63;;;3.73;;
16119;SDS011;12670;53.502;10.252;2023-08-21T05:06:57;9.47;;;3.00;;
16119;SDS011;12670;53.502;10.252;2023-08-21T05:10:00;6.40;;;3.03;;
16119;SDS011;12670;53.502;10.252;2023-08-21T05:13:05;9.63;;;3.30;;
16119;SDS011;12670;53.502;10.252;2023-08-21T05:16:07;6.90;;;3.10;;
16119;SDS011;12670;53.502;10.252;2023-08-21T05:19:10;6.63;;;2.90;;
16119;SDS011;12670;53.502;10.252;2023-08-21T05:22:13;9.23;;;3.30;;
16119;SDS011;12670;53.502;10.252;2023-08-21T05:25:15;11.27;;;3.87;;
16119;SDS011;12670;53.502;10.252;2023-08-21T05:28:19;8.20;;;3.57;;
16119;SDS011;12670;53.502;10.252;2023-08-21T05:31:22;11.80;;;4.07;;
16119;SDS011;12670;53.502;10.252;2023-08-21T05:34:25;8.33;;;3.80;;
16119;SDS011;12670;53.502;10.252;2023-08-21T05:37:28;9.83;;;4.00;;
16119;SDS011;12670;53.502;10.252;2023-08-21T05:40:31;8.07;;;4.30;;
16119;SDS011;12670;53.502;10.252;2023-08-21T05:43:35;8.83;;;4.63;;
16119;SDS011;12670;53.502;10.252;2023-08-21T05:46:38;11.60;;;4.80;;
16119;SDS011;12670;53.502;10.252;2023-08-21T05:49:41;11.77;;;5.03;;
16119;SDS011;12670;53.502;10.252;2023-08-21T05:52:43;11.03;;;5.30;;
16119;SDS011;12670;53.502;10.252;2023-08-21T05:55:46;15.63;;;6.10;;
16119;SDS011;12670;53.502;10.252;2023-08-21T05:58:50;13.40;;;5.27;;
16119;SDS011;12670;53.502;10.252;2023-08-21T06:01:53;13.27;;;5.53;;
16119;SDS011;12670;53.502;10.252;2023-08-21T06:04:56;13.20;;;5.07;;
16119;SDS011;12670;53.502;10.252;2023-08-21T06:07:59;9.37;;;4.70;;
16119;SDS011;12670;53.502;10.252;2023-08-21T06:11:02;12.10;;;5.00;;
16119;SDS011;12670;53.502;10.252;2023-08-21T06:14:06;13.90;;;5.20;;
16119;SDS011;12670;53.502;10.252;2023-08-21T06:17:09;15.80;;;5.73;;
16119;SDS011;12670;53.502;10.252;2023-08-21T06:20:12;9.40;;;4.57;;
16119;SDS011;12670;53.502;10.252;2023-08-21T06:23:15;15.60;;;5.10;;
16119;SDS011;12670;53.502;10.252;2023-08-21T06:26:18;13.47;;;5.40;;
16119;SDS011;12670;53.502;10.252;2023-08-21T06:29:22;15.17;;;5.43;;
16119;SDS011;12670;53.502;10.252;2023-08-21T06:32:24;16.53;;;5.53;;
16119;SDS011;12670;53.502;10.252;2023-08-21T06:35:27;14.50;;;5.43;;
16119;SDS011;12670;53.502;10.252;2023-08-21T06:38:30;13.27;;;4.93;;
16119;SDS011;12670;53.502;10.252;2023-08-21T06:41:35;16.77;;;4.93;;
16119;SDS011;12670;53.502;10.252;2023-08-21T06:44:39;9.63;;;4.37;;
16119;SDS011;12670;53.502;10.252;2023-08-21T06:47:42;12.90;;;4.20;;
16119;SDS011;12670;53.502;10.252;2023-08-21T06:50:44;17.43;;;4.27;;
16119;SDS011;12670;53.502;10.252;2023-08-21T06:53:47;12.73;;;4.30;;
16119;SDS011;12670;53.502;10.252;2023-08-21T06:56:50;14.50;;;3.50;;
16119;SDS011;12670;53.502;10.252;2023-08-21T06:59:54;12.73;;;3.77;;
16119;SDS011;12670;53.502;10.252;2023-08-21T07:02:57;14.07;;;3.53;;
16119;SDS011;12670;53.502;10.252;2023-08-21T07:05:59;13.98;;;3.53;;
16119;SDS011;12670;53.502;10.252;2023-08-21T07:09:03;11.90;;;3.00;;
16119;SDS011;12670;53.502;10.252;2023-08-21T07:12:06;10.65;;;3.08;;
16119;SDS011;12670;53.502;10.252;2023-08-21T07:15:10;13.90;;;3.25;;
16119;SDS011;12670;53.502;10.252;2023-08-21T07:18:13;12.07;;;3.05;;
16119;SDS011;12670;53.502;10.252;2023-08-21T07:21:16;7.78;;;3.03;;
16119;SDS011;12670;53.502;10.252;2023-08-21T07:24:32;16.75;;;3.05;;
16119;SDS011;12670;53.502;10.252;2023-08-21T07:27:35;8.77;;;2.00;;
16119;SDS011;12670;53.502;10.252;2023-08-21T07:30:39;8.25;;;2.50;;
16119;SDS011;12670;53.502;10.252;2023-08-21T07:33:42;11.68;;;2.72;;
16119;SDS011;12670;53.502;10.252;2023-08-21T07:36:45;9.23;;;2.72;;
16119;SDS011;12670;53.502;10.252;2023-08-21T07:39:47;7.30;;;2.28;;
16119;SDS011;12670;53.502;10.252;2023-08-21T07:42:50;8.93;;;2.25;;
16119;SDS011;12670;53.502;10.252;2023-08-21T07:45:54;12.07;;;2.40;;
16119;SDS011;12670;53.502;10.252;2023-08-21T07:48:57;8.73;;;2.28;;
16119;SDS011;12670;53.502;10.252;2023-08-21T07:52:00;9.48;;;2.05;;
16119;SDS011;12670;53.502;10.252;2023-08-21T07:55:02;8.25;;;1.75;;
16119;SDS011;12670;53.502;10.252;2023-08-21T07:58:06;7.20;;;1.70;;
16119;SDS011;12670;53.502;10.252;2023-08-21T08:01:10;6.82;;;1.90;;
16119;SDS011;12670;53.502;10.252;2023-08-21T08:04:12;7.75;;;2.28;;
16119;SDS011;12670;53.502;10.252;2023-08-21T08:07:15;10.95;;;2.00;;
16119;SDS011;12670;53.502;10.252;2023-08-21T08:10:18;13.45;;;2.28;;
16119;SDS011;12670;53.502;10.252;2023-08-21T08:13:21;5.28;;;1.67;;
16119;SDS011;12670;53.502;10.252;2023-08-21T08:16:25;7.53;;;2.72;;
16119;SDS011;12670;53.502;10.252;2023-08-21T08:19:27;5.18;;;1.70;;
16119;SDS011;12670;53.502;10.252;2023-08-21T08:22:30;7.68;;;1.95;;
16119;SDS011;12670;53.502;10.252;2023-08-21T08:25:33;5.40;;;1.40;;
16119;SDS011;12670;53.502;10.252;2023-08-21T08:28:35;5.93;;;1.70;;
16119;SDS011;12670;53.502;10.252;2023-08-21T08:31:39;5.40;;;1.85;;
16119;SDS011;12670;53.502;10.252;2023-08-21T08:34:42;9.18;;;1.77;;
16119;SDS011;12670;53.502;10.252;2023-08-21T08:37:47;4.45;;;1.58;;
16119;SDS011;12670;53.502;10.252;2023-08-21T08:40:50;8.00;;;1.70;;
16119;SDS011;12670;53.502;10.252;2023-08-21T08:43:55;6.65;;;1.42;;
16119;SDS011;12670;53.502;10.252;2023-08-21T08:47:00;3.60;;;1.60;;
16119;SDS011;12670;53.502;10.252;2023-08-21T08:50:04;6.18;;;1.60;;
16119;SDS011;12670;53.502;10.252;2023-08-21T08:53:08;10.73;;;1.88;;
16119;SDS011;12670;53.502;10.252;2023-08-21T08:56:17;4.95;;;1.50;;
16119;SDS011;12670;53.502;10.252;2023-08-21T08:59:20;6.53;;;1.60;;
16119;SDS011;12670;53.502;10.252;2023-08-21T09:02:25;8.68;;;2.00;;
16119;SDS011;12670;53.502;10.252;2023-08-21T09:05:28;8.73;;;1.65;;
16119;SDS011;12670;53.502;10.252;2023-08-21T09:08:31;5.97;;;1.50;;
16119;SDS011;12670;53.502;10.252;2023-08-21T09:11:33;6.85;;;1.65;;
16119;SDS011;12670;53.502;10.252;2023-08-21T09:14:36;5.07;;;1.48;;
16119;SDS011;12670;53.502;10.252;2023-08-21T09:17:41;7.32;;;2.17;;
16119;SDS011;12670;53.502;10.252;2023-08-21T09:20:44;4.47;;;1.45;;
16119;SDS011;12670;53.502;10.252;2023-08-21T09:23:47;7.20;;;1.63;;
16119;SDS011;12670;53.502;10.252;2023-08-21T09:26:51;10.82;;;1.92;;
16119;SDS011;12670;53.502;10.252;2023-08-21T09:29:54;4.63;;;1.50;;
16119;SDS011;12670;53.502;10.252;2023-08-21T09:32:59;2.33;;;1.30;;
16119;SDS011;12670;53.502;10.252;2023-08-21T09:36:04;6.03;;;1.63;;
16119;SDS011;12670;53.502;10.252;2023-08-21T09:39:07;5.05;;;1.55;;
16119;SDS011;12670;53.502;10.252;2023-08-21T09:42:18;5.85;;;1.55;;
16119;SDS011;12670;53.502;10.252;2023-08-21T09:45:22;6.88;;;1.30;;
16119;SDS011;12670;53.502;10.252;2023-08-21T09:48:27;2.80;;;1.00;;
16119;SDS011;12670;53.502;10.252;2023-08-21T09:51:30;2.63;;;1.25;;
16119;SDS011;12670;53.502;10.252;2023-08-21T09:54:33;5.43;;;1.20;;
16119;SDS011;12670;53.502;10.252;2023-08-21T09:57:36;5.43;;;1.20;;
16119;SDS011;12670;53.502;10.252;2023-08-21T10:00:39;3.42;;;1.35;;
16119;SDS011;12670;53.502;10.252;2023-08-21T10:03:44;6.45;;;1.35;;
16119;SDS011;12670;53.502;10.252;2023-08-21T10:06:49;5.22;;;1.30;;
16119;SDS011;12670;53.502;10.252;2023-08-21T10:09:56;4.72;;;1.50;;
16119;SDS011;12670;53.502;10.252;2023-08-21T10:12:59;3.40;;;1.20;;
16119;SDS011;12670;53.502;10.252;2023-08-21T10:16:03;3.45;;;0.93;;
16119;SDS011;12670;53.502;10.252;2023-08-21T10:19:12;5.57;;;1.38;;
16119;SDS011;12670;53.502;10.252;2023-08-21T10:22:17;5.05;;;1.30;;
16119;SDS011;12670;53.502;10.252;2023-08-21T10:25:41;4.22;;;1.20;;
16119;SDS011;12670;53.502;10.252;2023-08-21T10:28:50;5.55;;;1.30;;
16119;SDS011;12670;53.502;10.252;2023-08-21T10:32:04;5.40;;;1.20;;
16119;SDS011;12670;53.502;10.252;2023-08-21T10:35:12;2.75;;;1.20;;
16119;SDS011;12670;53.502;10.252;2023-08-21T10:38:16;6.35;;;1.30;;
16119;SDS011;12670;53.502;10.252;2023-08-21T10:41:20;4.18;;;1.23;;
16119;SDS011;12670;53.502;10.252;2023-08-21T10:44:35;5.03;;;1.40;;
16119;SDS011;12670;53.502;10.252;2023-08-21T10:47:53;2.97;;;1.17;;
16119;SDS011;12670;53.502;10.252;2023-08-21T10:51:01;8.35;;;1.48;;
16119;SDS011;12670;53.502;10.252;2023-08-21T10:54:10;3.47;;;1.20;;
16119;SDS011;12670;53.502;10.252;2023-08-21T10:57:13;3.85;;;1.30;;
16119;SDS011;12670;53.502;10.252;2023-08-21T11:00:16;4.30;;;1.20;;
16119;SDS011;12670;53.502;10.252;2023-08-21T11:03:20;2.60;;;1.10;;
16119;SDS011;12670;53.502;10.252;2023-08-21T11:06:24;4.35;;;1.30;;
16119;SDS011;12670;53.502;10.252;2023-08-21T11:09:26;3.33;;;1.20;;
16119;SDS011;12670;53.502;10.252;2023-08-21T11:12:30;2.53;;;1.00;;
16119;SDS011;12670;53.502;10.252;2023-08-21T11:15:32;3.95;;;1.13;;
16119;SDS011;12670;53.502;10.252;2023-08-21T11:18:36;3.65;;;1.10;;
16119;SDS011;12670;53.502;10.252;2023-08-21T11:21:41;3.05;;;1.00;;
16119;SDS011;12670;53.502;10.252;2023-08-21T11:24:45;2.92;;;1.17;;
16119;SDS011;12670;53.502;10.252;2023-08-21T11:27:48;4.22;;;1.15;;
16119;SDS011;12670;53.502;10.252;2023-08-21T11:30:51;2.97;;;0.85;;
16119;SDS011;12670;53.502;10.252;2023-08-21T11:33:54;4.50;;;1.02;;
16119;SDS011;12670;53.502;10.252;2023-08-21T11:36:58;2.60;;;1.10;;
16119;SDS011;12670;53.502;10.252;2023-08-21T11:40:06;3.90;;;1.10;;
16119;SDS011;12670;53.502;10.252;2023-08-21T11:43:10;4.28;;;1.33;;
16119;SDS011;12670;53.502;10.252;2023-08-21T11:46:13;3.10;;;1.30;;
16119;SDS011;12670;53.502;10.252;2023-08-21T11:49:16;3.92;;;1.10;;
16119;SDS011;12670;53.502;10.252;2023-08-21T11:52:21;2.28;;;1.10;;
16119;SDS011;12670;53.502;10.252;2023-08-21T11:55:26;1.88;;;1.05;;
16119;SDS011;12670;53.502;10.252;2023-08-21T11:58:29;4.38;;;0.93;;
16119;SDS011;12670;53.502;10.252;2023-08-21T12:01:32;6.28;;;1.30;;
16119;SDS011;12670;53.502;10.252;2023-08-21T12:04:36;3.03;;;1.20;;
16119;SDS011;12670;53.502;10.252;2023-08-21T12:07:40;6.47;;;1.40;;
16119;SDS011;12670;53.502;10.252;2023-08-21T12:10:43;2.90;;;1.25;;
16119;SDS011;12670;53.502;10.252;2023-08-21T12:13:47;3.83;;;1.45;;
16119;SDS011;12670;53.502;10.252;2023-08-21T12:16:50;5.60;;;1.42;;
16119;SDS011;12670;53.502;10.252;2023-08-21T12:19:53;7.32;;;1.30;;
16119;SDS011;12670;53.502;10.252;2023-08-21T12:22:57;3.85;;;1.30;;
16119;SDS011;12670;53.502;10.252;2023-08-21T12:25:59;3.25;;;1.10;;
16119;SDS011;12670;53.502;10.252;2023-08-21T12:29:02;3.30;;;1.40;;
16119;SDS011;12670;53.502;10.252;2023-08-21T12:32:05;3.90;;;1.33;;
16119;SDS011;12670;53.502;10.252;2023-08-21T12:35:08;5.72;;;1.30;;
16119;SDS011;12670;53.502;10.252;2023-08-21T12:38:14;2.38;;;1.10;;
16119;SDS011;12670;53.502;10.252;2023-08-21T12:41:17;2.33;;;1.00;;
16119;SDS011;12670;53.502;10.252;2023-08-21T12:44:20;2.33;;;1.20;;
16119;SDS011;12670;53.502;10.252;2023-08-21T12:47:22;3.42;;;1.10;;
16119;SDS011;12670;53.502;10.252;2023-08-21T12:50:25;4.07;;;1.38;;
16119;SDS011;12670;53.502;10.252;2023-08-21T12:53:29;4.00;;;1.23;;
16119;SDS011;12670;53.502;10.252;2023-08-21T12:56:32;3.00;;;1.02;;
16119;SDS011;12670;53.502;10.252;2023-08-21T12:59:35;3.17;;;1.10;;
16119;SDS011;12670;53.502;10.252;2023-08-21T13:02:37;3.03;;;1.23;;
16119;SDS011;12670;53.502;10.252;2023-08-21T13:05:40;2.92;;;1.00;;
16119;SDS011;12670;53.502;10.252;2023-08-21T13:08:45;3.45;;;1.33;;
16119;SDS011;12670;53.502;10.252;2023-08-21T13:11:47;2.58;;;1.30;;
16119;SDS011;12670;53.502;10.252;2023-08-21T13:14:50;3.95;;;1.10;;
16119;SDS011;12670;53.502;10.252;2023-08-21T13:17:53;3.47;;;1.20;;
16119;SDS011;12670;53.502;10.252;2023-08-21T13:20:55;3.65;;;1.10;;
16119;SDS011;12670;53.502;10.252;2023-08-21T13:23:59;4.03;;;1.40;;
16119;SDS011;12670;53.502;10.252;2023-08-21T13:27:04;2.33;;;1.10;;
16119;SDS011;12670;53.502;10.252;2023-08-21T13:30:07;1.75;;;1.10;;
16119;SDS011;12670;53.502;10.252;2023-08-21T13:33:11;2.22;;;1.10;;
16119;SDS011;12670;53.502;10.252;2023-08-21T13:36:13;3.17;;;1.20;;
16119;SDS011;12670;53.502;10.252;2023-08-21T13:39:18;1.95;;;1.10;;
16119;SDS011;12670;53.502;10.252;2023-08-21T13:42:20;2.33;;;1.13;;
16119;SDS011;12670;53.502;10.252;2023-08-21T13:45:23;2.55;;;1.20;;
16119;SDS011;12670;53.502;10.252;2023-08-21T13:48:26;2.88;;;1.17;;
16119;SDS011;12670;53.502;10.252;2023-08-21T13:51:29;3.75;;;1.30;;
16119;SDS011;12670;53.502;10.252;2023-08-21T13:54:33;4.45;;;1.30;;
16119;SDS011;12670;53.502;10.252;2023-08-21T13:57:35;2.40;;;1.10;;
16119;SDS011;12670;53.502;10.252;2023-08-21T14:00:39;4.55;;;1.20;;
16119;SDS011;12670;53.502;10.252;2023-08-21T14:03:41;3.90;;;1.35;;
16119;SDS011;12670;53.502;10.252;2023-08-21T14:06:44;1.85;;;1.00;;
16119;SDS011;12670;53.502;10.252;2023-08-21T14:09:48;2.97;;;1.02;;
16119;SDS011;12670;53.502;10.252;2023-08-21T14:12:51;4.68;;;1.38;;
16119;SDS011;12670;53.502;10.252;2023-08-21T14:15:54;4.18;;;1.00;;
16119;SDS011;12670;53.502;10.252;2023-08-21T14:18:56;7.82;;;2.20;;
16119;SDS011;12670;53.502;10.252;2023-08-21T14:21:59;4.03;;;1.60;;
16119;SDS011;12670;53.502;10.252;2023-08-21T14:25:03;8.88;;;2.33;;
16119;SDS011;12670;53.502;10.252;2023-08-21T14:28:07;6.65;;;1.63;;
16119;SDS011;12670;53.502;10.252;2023-08-21T14:31:10;7.57;;;2.20;;
16119;SDS011;12670;53.502;10.252;2023-08-21T14:34:13;4.97;;;1.80;;
16119;SDS011;12670;53.502;10.252;2023-08-21T14:37:15;2.55;;;1.25;;
16119;SDS011;12670;53.502;10.252;2023-08-21T14:40:19;4.00;;;1.40;;
16119;SDS011;12670;53.502;10.252;2023-08-21T14:43:25;6.47;;;2.13;;
16119;SDS011;12670;53.502;10.252;2023-08-21T14:46:29;2.35;;;1.30;;
16119;SDS011;12670;53.502;10.252;2023-08-21T14:49:43;5.22;;;1.48;;
16119;SDS011;12670;53.502;10.252;2023-08-21T14:52:46;2.83;;;1.10;;
16119;SDS011;12670;53.502;10.252;2023-08-21T14:55:51;2.42;;;1.17;;
16119;SDS011;12670;53.502;10.252;2023-08-21T14:58:53;3.78;;;1.30;;
16119;SDS011;12670;53.502;10.252;2023-08-21T15:01:56;4.05;;;1.30;;
16119;SDS011;12670;53.502;10.252;2023-08-21T15:05:01;4.57;;;1.40;;
16119;SDS011;12670;53.502;10.252;2023-08-21T15:08:06;5.00;;;1.30;;
16119;SDS011;12670;53.502;10.252;2023-08-21T15:11:10;2.17;;;1.15;;
16119;SDS011;12670;53.502;10.252;2023-08-21T15:14:12;2.90;;;1.38;;
16119;SDS011;12670;53.502;10.252;2023-08-21T15:17:15;2.17;;;1.27;;
16119;SDS011;12670;53.502;10.252;2023-08-21T15:20:20;4.22;;;1.50;;
16119;SDS011;12670;53.502;10.252;2023-08-21T15:23:23;6.70;;;1.40;;
16119;SDS011;12670;53.502;10.252;2023-08-21T15:26:27;2.38;;;1.10;;
16119;SDS011;12670;53.502;10.252;2023-08-21T15:29:29;2.97;;;1.35;;
16119;SDS011;12670;53.502;10.252;2023-08-21T15:32:32;5.03;;;1.42;;
16119;SDS011;12670;53.502;10.252;2023-08-21T15:35:35;3.67;;;1.20;;
16119;SDS011;12670;53.502;10.252;2023-08-21T15:38:39;5.97;;;1.35;;
16119;SDS011;12670;53.502;10.252;2023-08-21T15:41:43;2.83;;;1.30;;
16119;SDS011;12670;53.502;10.252;2023-08-21T15:44:46;16.17;;;7.60;;
16119;SDS011;12670;53.502;10.252;2023-08-21T15:47:48;10.30;;;6.18;;
16119;SDS011;12670;53.502;10.252;2023-08-21T15:50:52;3.67;;;1.50;;
16119;SDS011;12670;53.502;10.252;2023-08-21T15:53:55;7.15;;;4.03;;
16119;SDS011;12670;53.502;10.252;2023-08-21T15:56:59;3.38;;;1.40;;
16119;SDS011;12670;53.502;10.252;2023-08-21T16:00:02;6.18;;;1.90;;
16119;SDS011;12670;53.502;10.252;2023-08-21T16:03:06;3.50;;;1.50;;
16119;SDS011;12670;53.502;10.252;2023-08-21T16:06:08;2.97;;;1.80;;
16119;SDS011;12670;53.502;10.252;2023-08-21T16:09:11;2.95;;;1.70;;
16119;SDS011;12670;53.502;10.252;2023-08-21T16:12:15;11.52;;;6.55;;
16119;SDS011;12670;53.502;10.252;2023-08-21T16:15:18;2.22;;;1.40;;
16119;SDS011;12670;53.502;10.252;2023-08-21T16:18:20;2.90;;;1.70;;
16119;SDS011;12670;53.502;10.252;2023-08-21T16:21:23;2.70;;;1.60;;
16119;SDS011;12670;53.502;10.252;2023-08-21T16:24:26;4.90;;;1.30;;
16119;SDS011;12670;53.502;10.252;2023-08-21T16:27:30;4.60;;;1.55;;
16119;SDS011;12670;53.502;10.252;2023-08-21T16:30:33;3.35;;;1.30;;
16119;SDS011;12670;53.502;10.252;2023-08-21T16:33:35;3.00;;;1.33;;
16119;SDS011;12670;53.502;10.252;2023-08-21T16:36:38;6.45;;;3.20;;
16119;SDS011;12670;53.502;10.252;2023-08-21T16:39:40;3.85;;;1.92;;
16119;SDS011;12670;53.502;10.252;2023-08-21T16:42:45;2.38;;;1.40;;
16119;SDS011;12670;53.502;10.252;2023-08-21T16:45:47;3.75;;;1.73;;
16119;SDS011;12670;53.502;10.252;2023-08-21T16:48:51;2.28;;;1.25;;
16119;SDS011;12670;53.502;10.252;2023-08-21T16:51:54;8.65;;;2.63;;
16119;SDS011;12670;53.502;10.252;2023-08-21T16:54:56;5.43;;;2.03;;
16119;SDS011;12670;53.502;10.252;2023-08-21T16:58:00;5.78;;;2.00;;
16119;SDS011;12670;53.502;10.252;2023-08-21T17:01:03;6.22;;;2.33;;
16119;SDS011;12670;53.502;10.252;2023-08-21T17:04:06;4.78;;;2.17;;
16119;SDS011;12670;53.502;10.252;2023-08-21T17:07:09;4.13;;;1.60;;
16119;SDS011;12670;53.502;10.252;2023-08-21T17:10:12;2.88;;;1.42;;
16119;SDS011;12670;53.502;10.252;2023-08-21T17:13:17;4.57;;;1.33;;
16119;SDS011;12670;53.502;10.252;2023-08-21T17:16:19;2.40;;;1.20;;
16119;SDS011;12670;53.502;10.252;2023-08-21T17:19:22;4.63;;;1.42;;
16119;SDS011;12670;53.502;10.252;2023-08-21T17:22:25;3.03;;;1.45;;
16119;SDS011;12670;53.502;10.252;2023-08-21T17:25:27;5.43;;;1.75;;
16119;SDS011;12670;53.502;10.252;2023-08-21T17:28:31;5.20;;;1.85;;
16119;SDS011;12670;53.502;10.252;2023-08-21T17:31:34;4.68;;;1.50;;
16119;SDS011;12670;53.502;10.252;2023-08-21T17:34:37;8.45;;;2.03;;
16119;SDS011;12670;53.502;10.252;2023-08-21T17:37:39;6.43;;;1.70;;
16119;SDS011;12670;53.502;10.252;2023-08-21T17:40:43;3.95;;;1.70;;
16119;SDS011;12670;53.502;10.252;2023-08-21T17:43:47;4.93;;;1.73;;
16119;SDS011;12670;53.502;10.252;2023-08-21T17:46:50;3.63;;;1.13;;
16119;SDS011;12670;53.502;10.252;2023-08-21T17:49:53;4.72;;;1.30;;
16119;SDS011;12670;53.502;10.252;2023-08-21T17:52:55;2.15;;;1.20;;
16119;SDS011;12670;53.502;10.252;2023-08-21T17:56:00;2.22;;;1.10;;
16119;SDS011;12670;53.502;10.252;2023-08-21T17:59:04;3.85;;;1.30;;
16119;SDS011;12670;53.502;10.252;2023-08-21T18:02:06;4.47;;;1.48;;
16119;SDS011;12670;53.502;10.252;2023-08-21T18:05:15;3.35;;;1.70;;
16119;SDS011;12670;53.502;10.252;2023-08-21T18:08:18;4.03;;;1.40;;